Terminal Aerodrome Forecast
Issued by NWS

Home | Current Version | Previous Version | Text Only | Print | Product List | Glossary On
Versions: 1 2 3 4 5 6 7 8 9 10 11 12 13 14 15 16 17 18 19 20 21 22 23 24 25 26 27 28 29 30 31 32 33 34 35 36
344
FTUS41 KOKX 181004 AAC
TAFGON
TAF AMD
KGON 181004Z 1810/1906 05010KT 6SM -RA BR OVC008
     FM181200 02009KT 6SM BR OVC009
     FM181500 03010KT 6SM BR BKN009 OVC012
     FM182200 01007KT P6SM BKN008 OVC015
     FM190300 VRB04KT P6SM BKN010 OVC020=

USA.gov is the U.S. government's official web portal to all federal, state and local government web resources and services.